Flugplatz Bad Windsheim (EDQB)

Hier findest Du alle Informationen zum Flugplatz Bad Windsheim (EDQB).

Informationen für Piloten zum Flugplatz Bad Windsheim

Hier findest Du alle relevanten Informationen, die Du als Pilot benötigst, um Bad Windsheim anzufliegen.

Flugplatz: Bad Windsheim ICAO-Code: EDQB
Frequenz Turm: 118,275 Mhz GAFOR Gebiet: 55
Frequenz Ground: 118,275 Mhz Mogas: nein
Platzrunde: N 2000 ft Landegebühr: -
Platzhöhe: - Sunrise: 06:17 Uhr UTC
Pisten: 08/26 - 690 m x 30 m, GRAS Sunset: 16:46 Uhr UTC

Flugwetter am Flugplatz Bad Windsheim

Die METAR Information stammen aus EDDN (51.45 km entfernt).

METAR Code:
2020/02/17 13:50
EDDN 171350Z 14003KT 9000 -RA SCT022 BKN030 07/06 Q1018 NOSIG

Temperatur: 1,4 °C Niederschlag: - Wind: 7,0 kt
Temperatur (min.): -0,6 °C Luftdruck: 1023 hPa Windrichtung: 220 °
Temperatur (max.): 3,3 °C Luftfeuchtigkeit: 93 % Bewölkung: 8/8

Flugschulen am Flugplatz Bad Windsheim

Am Flugplatz Bad Windsheim gibt es leider keine Flugschule.

Benachbarte Flugplätze und Flugschulen

Es gibt 17 weitere Flugplätze in einem Umkreis von 50 km um den Flugplatz Bad Windsheim.

Jetzt anmelden

Passwort vergessen

Umfrage Archiv

Lasst Ihr Euch bei Überlandflügen von FIS begleiten?

Ja, immer!
43.7 %
Ja, unregelmäßig!
29.6 %
Ja, aber nur selten!
15.6 %
Nein, nie!
11.1 %
Stimmen: 199 | Diskussion
Anzeige: Roland Aircraft
Statistik Alle Mitglieder

Aktuell sind 22 Besucher online.

Anzeige: VFR Sprechfunk Simulator


Anzeige: Pocket FMS